Time;durP1;ratioP1;P1;durP2;ratioP2;P2;SDS_P1;SDS_P2;PMS_P1;PMS_P2;Temp;Humidity;BMP_temperature;BMP_pressure;BME280_temperature;BME280_humidity;BME280_pressure;Samples;Min_cycle;Max_cycle;Signal;HPM_P1;HPM_P2
2023/10/30 00:00:45;;;;;;;6.28;1.52;;;;;;;11.62;62.57;94350.44;5046702;28;20067;-77
2023/10/30 00:03:11;;;;;;;6.25;1.63;;;;;;;11.61;62.47;94346.19;5046500;28;20028;-76
2023/10/30 00:05:37;;;;;;;4.50;1.45;;;;;;;11.62;62.73;94350.44;5046302;28;20018;-76
2023/10/30 00:08:02;;;;;;;6.03;1.67;;;;;;;11.58;62.94;94349.47;5046603;28;20096;-76
2023/10/30 00:10:28;;;;;;;4.20;1.55;;;;;;;11.55;63.26;94350.88;5046423;28;20037;-76
2023/10/30 00:12:54;;;;;;;3.67;1.50;;;;;;;11.55;63.18;94336.75;5046161;28;20036;-76
2023/10/30 00:15:19;;;;;;;4.72;1.27;;;;;;;11.55;63.32;94334.09;5046250;28;20025;-76
2023/10/30 00:17:45;;;;;;;5.60;1.52;;;;;;;11.51;63.39;94335.78;5046499;28;20319;-79
2023/10/30 00:20:10;;;;;;;5.65;1.65;;;;;;;11.52;63.60;94332.81;5046116;28;20060;-79
2023/10/30 00:22:36;;;;;;;9.85;1.70;;;;;;;11.51;63.17;94338.47;5045080;28;20057;-80
2023/10/30 00:25:02;;;;;;;7.78;1.73;;;;;;;11.54;63.23;94329.81;5044882;28;20083;-80
2023/10/30 00:27:28;;;;;;;8.45;1.40;;;;;;;11.54;63.10;94329.81;5046221;28;20227;-80
2023/10/30 00:29:53;;;;;;;3.72;1.30;;;;;;;11.54;62.14;94332.50;5046094;28;20025;-80
2023/10/30 00:32:19;;;;;;;6.10;1.70;;;;;;;11.55;62.35;94326.84;5046037;28;20033;-80
2023/10/30 00:34:44;;;;;;;8.93;1.83;;;;;;;11.55;62.83;94336.75;5061457;28;20029;-79
2023/10/30 00:37:11;;;;;;;4.95;1.55;;;;;;;11.51;62.78;94338.47;5045959;28;20041;-78
2023/10/30 00:39:37;;;;;;;5.95;1.48;;;;;;;11.46;62.56;94344.72;5046017;28;20036;-77
2023/10/30 00:42:03;;;;;;;7.40;1.60;;;;;;;11.43;62.65;94343.44;5045906;28;20021;-77
2023/10/30 00:44:28;;;;;;;7.53;1.88;;;;;;;11.40;62.79;94340.63;5045651;28;20120;-77
2023/10/30 00:46:54;;;;;;;7.93;2.47;;;;;;;11.42;62.72;94335.75;5045695;28;20029;-77
2023/10/30 00:49:20;;;;;;;11.00;2.30;;;;;;;11.45;62.92;94340.47;5045679;28;20021;-77
2023/10/30 00:51:46;;;;;;;8.50;2.83;;;;;;;11.40;62.53;94333.38;5045898;28;20029;-77
2023/10/30 00:54:11;;;;;;;9.90;2.63;;;;;;;11.38;62.44;94335.56;5045495;28;20100;-77
2023/10/30 00:56:37;;;;;;;6.38;2.20;;;;;;;11.40;62.50;94337.94;5045409;28;20041;-79
2023/10/30 00:59:02;;;;;;;9.35;2.75;;;;;;;11.42;62.43;94339.22;5045346;28;20049;-77
2023/10/30 01:01:30;;;;;;;8.23;3.15;;;;;;;11.43;62.68;94343.44;5045459;28;20025;-77
2023/10/30 01:03:55;;;;;;;10.98;3.08;;;;;;;11.40;62.62;94333.38;5045119;28;20045;-78
2023/10/30 01:06:21;;;;;;;12.10;3.15;;;;;;;11.44;62.74;94345.03;5044263;28;20349;-78
2023/10/30 01:08:46;;;;;;;5.95;2.85;;;;;;;11.39;62.46;94337.13;5045438;28;20093;-78
2023/10/30 01:11:14;;;;;;;26.67;2.90;;;;;;;11.38;62.69;94335.56;5045244;28;20135;-78
2023/10/30 01:13:39;;;;;;;6.82;2.35;;;;;;;11.37;62.92;94333.97;5043923;28;20336;-78
2023/10/30 01:16:05;;;;;;;11.18;2.55;;;;;;;11.35;63.27;94338.06;5045086;28;20037;-78
2023/10/30 01:18:31;;;;;;;6.45;2.40;;;;;;;11.32;63.50;94331.47;5043841;28;20272;-77
2023/10/30 01:20:59;;;;;;;7.30;2.75;;;;;;;11.30;63.35;94330.97;5045193;28;20034;-77
2023/10/30 01:23:24;;;;;;;9.20;2.70;;;;;;;11.28;63.57;94329.72;5045116;28;20340;-77
2023/10/30 01:25:51;;;;;;;6.93;2.45;;;;;;;11.24;63.78;94332.19;5045045;28;20017;-77
2023/10/30 01:28:38;;;;;;;4.93;1.92;;;;;;;11.21;63.80;94332.78;5044942;28;20025;-76
2023/10/30 01:31:04;;;;;;;6.10;2.20;;;;;;;11.17;63.57;94329.16;5042497;28;20037;-77
2023/10/30 01:33:30;;;;;;;4.47;2.10;;;;;;;11.15;63.78;94326.78;5044051;28;20025;-77
2023/10/30 01:35:56;;;;;;;6.38;2.35;;;;;;;11.15;64.15;94334.00;5043503;28;20021;-77
2023/10/30 01:38:21;;;;;;;8.20;2.33;;;;;;;11.13;64.30;94322.84;5043446;28;20013;-77
2023/10/30 01:40:48;;;;;;;7.47;2.17;;;;;;;11.08;64.30;94326.44;5044748;28;20276;-80
2023/10/30 01:43:14;;;;;;;6.25;2.20;;;;;;;11.04;64.35;94320.94;5044842;28;20028;-80
2023/10/30 01:45:39;;;;;;;9.85;2.58;;;;;;;11.02;64.76;94328.44;5044794;28;20021;-77
2023/10/30 01:48:05;;;;;;;7.43;2.38;;;;;;;11.01;65.08;94326.88;5044629;28;20045;-82
2023/10/30 01:50:31;;;;;;;7.10;2.50;;;;;;;10.97;65.18;94331.25;5044451;28;20262;-82
2023/10/30 01:52:57;;;;;;;5.97;2.30;;;;;;;10.87;65.15;94328.81;5044620;28;20224;-82
2023/10/30 01:55:23;;;;;;;7.63;2.30;;;;;;;10.82;65.60;94327.03;5044415;28;20025;-82
2023/10/30 01:57:49;;;;;;;5.93;2.65;;;;;;;10.79;65.87;94333.00;5044423;28;20064;-82
2023/10/30 02:00:15;;;;;;;9.45;2.17;;;;;;;10.71;65.92;94327.59;5044417;28;20029;-82
2023/10/30 02:02:42;;;;;;;10.20;2.40;;;;;;;10.69;65.88;94335.13;5044352;28;20021;-82
2023/10/30 02:05:08;;;;;;;6.65;3.00;;;;;;;10.64;66.03;94334.16;5044382;28;20045;-82
2023/10/30 02:07:36;;;;;;;8.73;2.28;;;;;;;10.64;66.37;94333.34;5044278;28;20017;-81
2023/10/30 02:10:06;;;;;;;10.02;2.40;;;;;;;10.64;66.59;94334.16;5043947;28;20021;-80
2023/10/30 02:12:32;;;;;;;5.97;2.05;;;;;;;10.62;66.66;94333.66;5043130;28;20048;-80
2023/10/30 02:14:57;;;;;;;12.13;3.88;;;;;;;10.63;66.58;94331.78;5043513;28;20017;-80
2023/10/30 02:17:23;;;;;;;7.50;2.50;;;;;;;10.61;66.74;94331.28;5044104;28;20096;-80
2023/10/30 02:19:48;;;;;;;7.03;2.45;;;;;;;10.58;66.76;94337.19;5043504;28;20246;-80
2023/10/30 02:22:14;;;;;;;7.47;2.47;;;;;;;10.56;67.24;94336.72;5043350;28;20052;-81
2023/10/30 02:24:39;;;;;;;6.78;2.60;;;;;;;10.51;67.33;94340.28;5043144;28;20013;-80
2023/10/30 02:27:05;;;;;;;7.93;2.85;;;;;;;10.49;67.61;94336.34;5043025;28;20260;-80
2023/10/30 02:29:30;;;;;;;11.77;3.13;;;;;;;10.49;67.59;94342.47;5043081;28;20074;-80
2023/10/30 02:31:56;;;;;;;8.93;3.67;;;;;;;10.48;67.66;94343.53;5043001;28;20025;-81
2023/10/30 02:34:21;;;;;;;8.93;3.63;;;;;;;10.48;67.77;94340.09;5042950;28;20044;-80
2023/10/30 02:36:47;;;;;;;8.52;2.97;;;;;;;10.46;67.94;94340.38;5043209;28;20024;-80
2023/10/30 02:39:12;;;;;;;10.73;3.25;;;;;;;10.43;68.12;94333.78;5042756;28;20152;-80
2023/10/30 02:41:38;;;;;;;7.65;2.55;;;;;;;10.41;68.34;94341.28;5042922;28;20622;-80
2023/10/30 02:44:03;;;;;;;12.38;2.95;;;;;;;10.40;68.36;94337.06;5042831;28;20013;-80
2023/10/30 02:46:29;;;;;;;9.07;3.42;;;;;;;10.36;68.54;94340.59;5042815;28;20017;-80
2023/10/30 02:48:54;;;;;;;11.98;3.17;;;;;;;10.30;68.68;94333.81;5042591;28;20021;-80
2023/10/30 02:51:20;;;;;;;6.22;2.55;;;;;;;10.29;68.89;94338.34;5042783;28;20365;-80
2023/10/30 02:53:45;;;;;;;8.27;2.67;;;;;;;10.31;68.67;94344.19;5042762;28;20025;-80
2023/10/30 02:56:11;;;;;;;8.30;2.15;;;;;;;10.31;68.86;94338.06;5041431;28;20297;-79
2023/10/30 02:58:36;;;;;;;5.50;2.15;;;;;;;10.29;68.83;94337.53;5042441;28;20023;-79
2023/10/30 03:01:02;;;;;;;13.13;2.80;;;;;;;10.34;68.41;94332.13;5042730;28;20083;-78
2023/10/30 03:03:28;;;;;;;8.25;2.10;;;;;;;10.35;68.41;94336.38;5042471;28;20013;-78
2023/10/30 03:05:55;;;;;;;4.68;1.98;;;;;;;10.35;68.34;94331.06;5042379;28;20028;-78
2023/10/30 03:08:20;;;;;;;7.32;1.48;;;;;;;10.34;68.35;94334.78;5042266;28;20063;-77
2023/10/30 03:10:48;;;;;;;6.75;1.45;;;;;;;10.32;68.43;94336.97;5042564;28;20291;-80
2023/10/30 03:13:14;;;;;;;5.85;1.50;;;;;;;10.30;68.46;94341.81;5041426;28;20021;-79
2023/10/30 03:15:45;;;;;;;5.35;1.70;;;;;;;10.29;68.87;94337.53;5042228;28;20023;-79
2023/10/30 03:18:11;;;;;;;8.27;2.83;;;;;;;10.29;68.51;94342.88;5042394;28;20025;-79
2023/10/30 03:20:36;;;;;;;4.57;1.90;;;;;;;10.28;68.56;94336.75;5003519;28;1128564;-79
2023/10/30 03:23:02;;;;;;;8.82;1.83;;;;;;;10.24;68.33;94347.22;5043076;28;20021;-79
2023/10/30 03:25:27;;;;;;;5.90;1.90;;;;;;;10.25;68.18;94337.34;5041778;28;20021;-77
2023/10/30 03:27:53;;;;;;;9.25;2.15;;;;;;;10.30;68.18;94337.28;5042025;28;20021;-77
2023/10/30 03:30:19;;;;;;;3.83;1.70;;;;;;;10.31;68.42;94354.06;5042939;28;20080;-81
2023/10/30 03:32:44;;;;;;;5.97;1.88;;;;;;;10.27;68.35;94353.03;5043143;28;20022;-81
2023/10/30 03:35:09;;;;;;;9.02;2.25;;;;;;;10.27;68.27;94355.72;5042849;28;20075;-80
2023/10/30 03:37:35;;;;;;;7.68;1.73;;;;;;;10.27;68.14;94358.38;5041626;28;20385;-80
2023/10/30 03:40:00;;;;;;;4.65;1.90;;;;;;;10.28;68.05;94349.28;5043024;28;20088;-80
2023/10/30 03:42:26;;;;;;;6.22;1.90;;;;;;;10.28;68.09;94362.59;5041820;28;20024;-80
2023/10/30 03:44:51;;;;;;;5.43;2.08;;;;;;;10.30;68.19;94363.13;5042777;28;20017;-80
2023/10/30 03:47:16;;;;;;;7.63;1.98;;;;;;;10.25;68.18;94370.09;5041900;28;20017;-80
2023/10/30 03:49:42;;;;;;;7.95;2.00;;;;;;;10.23;68.48;94358.94;5042835;28;20320;-80
2023/10/30 03:52:07;;;;;;;9.77;2.13;;;;;;;10.22;68.43;94361.94;5042599;28;20025;-80
2023/10/30 03:54:32;;;;;;;6.63;1.67;;;;;;;10.22;68.60;94364.59;5042848;28;20025;-80
2023/10/30 03:56:58;;;;;;;9.93;2.45;;;;;;;10.15;69.08;94354.31;5042868;28;20018;-79
2023/10/30 03:59:23;;;;;;;8.25;2.35;;;;;;;10.12;69.35;94352.28;5042952;28;20017;-79
2023/10/30 04:01:49;;;;;;;22.42;5.78;;;;;;;10.14;69.23;94357.31;5041657;28;20044;-78
2023/10/30 04:04:14;;;;;;;6.95;2.10;;;;;;;10.08;69.31;94347.84;5042717;28;20316;-78
2023/10/30 04:06:40;;;;;;;5.28;2.22;;;;;;;9.95;69.77;94344.09;5042616;28;20033;-76
2023/10/30 04:09:06;;;;;;;3.75;1.70;;;;;;;9.96;69.85;94351.00;5042582;28;20013;-76
2023/10/30 04:11:32;;;;;;;8.27;1.98;;;;;;;9.94;69.82;94347.84;5041458;28;20036;-76
2023/10/30 04:13:57;;;;;;;3.38;1.55;;;;;;;9.92;70.10;94350.03;5042707;28;20053;-77
2023/10/30 04:16:23;;;;;;;5.93;1.85;;;;;;;9.87;70.23;94342.13;5042527;28;20302;-76
2023/10/30 04:18:48;;;;;;;5.15;1.63;;;;;;;9.88;70.22;94341.03;5042418;28;20038;-77
2023/10/30 04:21:14;;;;;;;5.55;1.80;;;;;;;9.84;70.32;94346.16;5041540;28;20227;-77
2023/10/30 04:23:40;;;;;;;8.45;1.80;;;;;;;9.79;70.63;94355.03;5041304;28;20139;-77
2023/10/30 04:26:05;;;;;;;4.85;2.08;;;;;;;9.73;71.07;94348.25;5042475;28;20021;-79
2023/10/30 04:28:31;;;;;;;9.43;2.03;;;;;;;9.73;70.98;94348.25;5042608;28;20016;-79
2023/10/30 04:30:56;;;;;;;6.22;2.45;;;;;;;9.73;71.10;94350.91;5042541;28;20013;-79
2023/10/30 04:33:22;;;;;;;10.15;2.00;;;;;;;9.73;71.26;94353.56;5041270;28;20025;-79
2023/10/30 04:35:47;;;;;;;7.93;2.60;;;;;;;9.69;71.43;94343.78;5042448;28;20071;-79
2023/10/30 04:38:12;;;;;;;9.80;2.67;;;;;;;9.72;71.62;94345.88;5042964;28;20056;-79
2023/10/30 04:40:38;;;;;;;5.85;2.03;;;;;;;9.73;71.30;94350.09;5045886;28;20049;-79
2023/10/30 04:43:03;;;;;;;5.03;1.67;;;;;;;9.65;71.58;94346.25;5046069;28;20021;-79
2023/10/30 04:45:29;;;;;;;7.43;2.08;;;;;;;9.59;71.93;94348.22;5045693;28;20323;-79
2023/10/30 04:47:54;;;;;;;7.63;2.53;;;;;;;9.59;71.96;94352.78;5045786;28;20021;-79
2023/10/30 04:50:20;;;;;;;9.32;2.53;;;;;;;9.56;71.93;94354.13;5045634;28;20033;-79
2023/10/30 04:52:45;;;;;;;10.32;2.30;;;;;;;9.51;72.44;94356.09;5045673;28;20017;-79
2023/10/30 04:55:10;;;;;;;12.68;2.70;;;;;;;9.48;72.63;94360.13;5045561;28;20032;-79
2023/10/30 04:57:36;;;;;;;7.32;2.30;;;;;;;9.48;72.92;94364.66;5045607;28;20018;-79
2023/10/30 05:00:04;;;;;;;11.38;3.58;;;;;;;9.47;73.30;94360.44;5045474;28;20025;-79
2023/10/30 05:02:30;;;;;;;8.77;2.67;;;;;;;9.50;73.22;94370.47;5045440;28;20092;-78
2023/10/30 05:04:55;;;;;;;7.35;2.30;;;;;;;9.53;73.04;94365.38;5045347;28;20020;-78
2023/10/30 05:07:20;;;;;;;11.77;2.65;;;;;;;9.57;73.14;94365.56;5045346;28;20036;-78
2023/10/30 05:09:46;;;;;;;7.85;2.72;;;;;;;9.54;72.73;94369.59;5061284;28;20013;-76
2023/10/30 05:12:11;;;;;;;11.40;2.58;;;;;;;9.57;72.94;94365.56;5045194;28;20029;-76
2023/10/30 05:14:37;;;;;;;13.63;3.10;;;;;;;9.58;73.11;94367.91;5045038;28;20029;-77
2023/10/30 05:17:02;;;;;;;6.20;2.60;;;;;;;9.60;72.90;94372.97;5045305;28;20089;-83
2023/10/30 05:19:29;;;;;;;5.05;1.98;;;;;;;9.62;72.80;94376.13;5045171;28;20087;-84
2023/10/30 05:21:57;;;;;;;15.15;2.78;;;;;;;9.61;72.87;94374.56;5045145;28;20045;-82
2023/10/30 05:24:23;;;;;;;8.25;2.50;;;;;;;9.62;72.82;94378.78;5043735;28;20214;-77
2023/10/30 05:26:49;;;;;;;10.95;5.45;;;;;;;9.68;72.90;94384.81;5045000;28;20027;-79
2023/10/30 05:29:14;;;;;;;7.45;3.22;;;;;;;9.67;73.04;94381.34;5044978;28;20025;-79
2023/10/30 05:31:42;;;;;;;11.02;2.70;;;;;;;9.69;72.75;94384.53;5043703;28;20097;-78
2023/10/30 05:34:08;;;;;;;8.43;2.58;;;;;;;9.74;73.07;94383.63;5044763;28;20385;-78
2023/10/30 05:36:34;;;;;;;8.80;2.35;;;;;;;9.78;73.00;94393.38;5044612;28;20017;-78
2023/10/30 05:38:59;;;;;;;11.43;2.33;;;;;;;9.82;72.87;94393.59;5044758;28;20035;-79
2023/10/30 05:41:25;;;;;;;11.85;3.83;;;;;;;9.87;72.88;94398.84;5060017;28;20040;-78
2023/10/30 05:43:50;;;;;;;7.47;3.05;;;;;;;9.92;72.84;94403.28;5044650;28;20341;-77
2023/10/30 05:46:15;;;;;;;6.30;2.80;;;;;;;9.98;73.03;94410.84;5044895;28;20096;-76
2023/10/30 05:48:41;;;;;;;8.60;3.30;;;;;;;10.00;73.13;94406.03;5043384;28;20072;-78
2023/10/30 05:51:06;;;;;;;5.75;3.20;;;;;;;10.03;73.05;94410.78;5043434;28;20156;-77
2023/10/30 05:53:32;;;;;;;13.20;3.72;;;;;;;10.09;72.91;94414.09;5044354;28;20021;-78
2023/10/30 05:55:57;;;;;;;15.57;4.05;;;;;;;10.12;72.55;94408.22;5044416;28;20013;-78
2023/10/30 05:58:22;;;;;;;12.60;4.63;;;;;;;10.17;72.48;94416.09;5044474;28;20323;-78
2023/10/30 06:00:48;;;;;;;13.60;3.92;;;;;;;10.19;71.75;94416.56;5044410;28;20087;-77
2023/10/30 06:03:14;;;;;;;16.75;4.75;;;;;;;10.25;72.00;94411.94;5044447;28;20021;-77
2023/10/30 06:05:39;;;;;;;22.80;5.95;;;;;;;10.29;71.67;94415.59;5044358;28;20021;-79
2023/10/30 06:08:05;;;;;;;15.40;5.15;;;;;;;10.38;71.06;94410.38;5044202;28;20025;-78
2023/10/30 06:10:31;;;;;;;14.57;4.40;;;;;;;10.47;70.92;94418.47;5044029;28;20028;-78
2023/10/30 06:12:56;;;;;;;10.23;3.70;;;;;;;10.53;70.68;94422.63;5044034;28;20075;-78
2023/10/30 06:15:22;;;;;;;12.25;4.05;;;;;;;10.60;70.54;94423.00;5043994;28;20017;-77
2023/10/30 06:17:47;;;;;;;15.02;3.50;;;;;;;10.64;70.73;94418.63;5044007;28;20017;-81
2023/10/30 06:20:13;;;;;;;16.10;4.53;;;;;;;10.73;70.32;94418.75;5044006;28;20052;-78
2023/10/30 06:22:38;;;;;;;15.05;5.38;;;;;;;10.76;70.17;94426.91;5043934;28;20044;-77
2023/10/30 06:25:05;;;;;;;14.00;4.55;;;;;;;10.81;70.19;94426.03;5044106;28;20021;-79
2023/10/30 06:27:34;;;;;;;17.27;6.20;;;;;;;10.92;69.71;94435.38;5043982;28;20096;-76
2023/10/30 06:30:00;;;;;;;12.50;5.28;;;;;;;11.00;69.64;94428.53;5043560;28;20312;-78
2023/10/30 06:32:25;;;;;;;12.82;4.85;;;;;;;11.06;69.68;94437.22;5043872;28;20024;-78
2023/10/30 06:34:50;;;;;;;27.00;5.18;;;;;;;11.12;69.45;94428.00;5043574;28;20029;-77
2023/10/30 06:37:16;;;;;;;11.63;4.50;;;;;;;11.18;69.10;94437.47;5043577;28;20308;-77
2023/10/30 06:39:42;;;;;;;17.83;6.07;;;;;;;11.21;69.05;94431.50;5042128;28;20040;-76
2023/10/30 06:42:07;;;;;;;24.70;6.35;;;;;;;11.28;68.88;94441.78;5043526;28;20104;-79
2023/10/30 06:44:33;;;;;;;15.95;4.75;;;;;;;11.36;68.86;94433.84;5043434;28;20055;-76
2023/10/30 06:46:59;;;;;;;18.48;4.43;;;;;;;11.44;68.59;94437.66;5043413;28;20017;-76
2023/10/30 06:49:24;;;;;;;16.50;4.65;;;;;;;11.48;68.36;94433.28;5043039;28;20017;-76
2023/10/30 06:51:50;;;;;;;17.98;4.70;;;;;;;11.60;67.74;94432.72;5043188;28;20029;-76
2023/10/30 06:54:15;;;;;;;16.45;5.45;;;;;;;11.67;67.21;94427.75;5043279;28;20032;-76
2023/10/30 06:56:41;;;;;;;18.27;5.20;;;;;;;11.79;66.63;94425.31;5043421;28;20116;-76
2023/10/30 06:59:09;;;;;;;11.10;5.18;;;;;;;11.91;66.29;94432.00;5042992;28;20079;-76
2023/10/30 07:01:43;;;;;;;12.95;5.47;;;;;;;12.03;65.87;94424.97;5042916;28;20391;-76
2023/10/30 07:04:10;;;;;;;16.08;4.57;;;;;;;12.12;65.52;94425.00;5043098;28;20224;-76
2023/10/30 07:06:36;;;;;;;19.40;5.60;;;;;;;12.23;65.64;94425.50;5043036;28;20027;-76
2023/10/30 07:09:02;;;;;;;17.17;6.15;;;;;;;12.31;65.76;94426.66;5043092;28;20029;-76
2023/10/30 07:11:27;;;;;;;16.35;6.55;;;;;;;12.43;65.58;94427.63;5042935;28;20327;-75
2023/10/30 07:13:52;;;;;;;18.95;6.00;;;;;;;12.53;65.29;94423.88;5042802;28;20193;-75
2023/10/30 07:16:18;;;;;;;15.05;5.28;;;;;;;12.61;64.38;94422.31;5042792;28;20018;-74
2023/10/30 07:18:44;;;;;;;17.42;5.20;;;;;;;12.70;63.26;94419.66;5043543;28;20041;-74
2023/10/30 07:21:09;;;;;;;20.55;5.82;;;;;;;12.81;63.22;94431.66;5042905;28;20018;-74
2023/10/30 07:23:35;;;;;;;14.65;5.28;;;;;;;12.90;62.42;94421.72;5041588;28;20059;-75
2023/10/30 07:26:00;;;;;;;18.38;5.03;;;;;;;12.96;62.33;94422.38;5042715;28;20025;-73
2023/10/30 07:28:25;;;;;;;19.00;4.25;;;;;;;12.99;61.38;94424.44;5041407;28;20393;-74
2023/10/30 07:30:51;;;;;;;11.98;4.38;;;;;;;13.00;61.03;94429.44;5042632;28;20053;-74
2023/10/30 07:33:17;;;;;;;13.23;4.78;;;;;;;13.04;60.92;94425.03;5042718;28;20215;-75
2023/10/30 07:38:36;;;;;;;16.50;5.70;;;;;;;13.10;61.23;94427.59;5038629;28;20026;-74
2023/10/30 07:41:04;;;;;;;16.65;4.43;;;;;;;13.08;60.60;94419.84;5042504;28;20263;-74
2023/10/30 07:43:34;;;;;;;19.10;4.55;;;;;;;13.16;60.40;94426.31;5042300;28;20013;-74
2023/10/30 07:45:59;;;;;;;16.63;4.68;;;;;;;13.23;60.37;94421.28;5042896;28;20033;-74
2023/10/30 07:48:26;;;;;;;13.63;4.50;;;;;;;13.33;59.86;94428.22;5042712;28;20251;-75
2023/10/30 07:50:52;;;;;;;10.60;3.83;;;;;;;13.33;58.92;94425.53;5042373;28;20021;-74
2023/10/30 07:53:20;;;;;;;15.95;4.15;;;;;;;13.34;59.14;94438.63;5042726;28;20067;-74
2023/10/30 07:55:46;;;;;;;17.35;4.88;;;;;;;13.39;58.51;94424.28;5041669;28;20036;-74
2023/10/30 07:58:12;;;;;;;15.07;4.60;;;;;;;13.44;59.23;94430.28;5042640;28;20057;-75
2023/10/30 08:00:41;;;;;;;10.27;4.20;;;;;;;13.43;58.83;94426.03;5042458;28;20069;-75
2023/10/30 08:03:07;;;;;;;11.18;4.15;;;;;;;13.54;58.34;94423.03;5042471;28;20024;-74
2023/10/30 08:05:32;;;;;;;11.75;3.80;;;;;;;13.52;58.14;94427.91;5042496;28;20017;-73
2023/10/30 08:07:58;;;;;;;15.68;4.25;;;;;;;13.60;57.67;94421.75;5042562;28;20018;-74
2023/10/30 08:10:24;;;;;;;8.90;3.10;;;;;;;13.65;57.15;94432.28;5042440;28;20029;-74
2023/10/30 08:12:49;;;;;;;11.88;4.68;;;;;;;13.73;56.80;94423.44;5042232;28;20025;-74
2023/10/30 08:15:15;;;;;;;13.73;3.58;;;;;;;13.83;56.55;94412.38;5046196;28;20029;-74
2023/10/30 08:17:40;;;;;;;15.05;4.10;;;;;;;13.93;56.09;94413.94;5046079;28;20025;-74
2023/10/30 08:20:06;;;;;;;10.30;3.78;;;;;;;13.91;56.13;94418.06;5045843;28;20041;-75
2023/10/30 08:22:32;;;;;;;17.30;3.78;;;;;;;14.06;56.23;94409.47;5046163;28;20219;-75
2023/10/30 08:24:59;;;;;;;16.73;5.25;;;;;;;14.14;56.07;94405.97;5045876;28;20212;-74
2023/10/30 08:27:24;;;;;;;11.80;3.20;;;;;;;14.26;55.78;94418.72;5046037;28;20033;-75
2023/10/30 08:29:52;;;;;;;16.23;3.53;;;;;;;14.39;55.54;94422.25;5044502;28;20028;-76
2023/10/30 08:32:18;;;;;;;14.00;3.08;;;;;;;14.49;55.11;94416.56;5044963;28;20320;-75
2023/10/30 08:34:44;;;;;;;16.08;3.92;;;;;;;14.60;55.01;94406.28;5045900;28;20036;-73
2023/10/30 08:37:10;;;;;;;10.35;3.42;;;;;;;14.73;54.94;94423.22;5045906;28;20056;-74
2023/10/30 08:39:36;;;;;;;10.23;3.58;;;;;;;14.84;54.66;94413.69;5045563;28;20025;-74
2023/10/30 08:42:02;;;;;;;13.48;4.00;;;;;;;14.92;54.34;94410.16;5045658;28;20315;-74
2023/10/30 08:44:27;;;;;;;8.77;3.83;;;;;;;15.01;54.22;94418.94;5045657;28;20066;-74
2023/10/30 08:46:53;;;;;;;11.10;3.97;;;;;;;15.12;54.33;94415.84;5045526;28;20089;-74
2023/10/30 08:49:21;;;;;;;18.65;4.72;;;;;;;15.20;54.50;94415.00;5045568;28;20092;-74
2023/10/30 08:51:47;;;;;;;14.13;3.50;;;;;;;15.33;54.56;94411.28;5045373;28;20311;-74
2023/10/30 08:54:13;;;;;;;9.48;3.63;;;;;;;15.43;54.45;94410.88;5044061;28;20223;-73
2023/10/30 08:56:39;;;;;;;12.80;3.25;;;;;;;15.57;54.38;94409.78;5044056;28;20029;-73
2023/10/30 08:59:05;;;;;;;17.05;3.58;;;;;;;15.71;53.58;94404.91;5044163;28;20060;-73
2023/10/30 09:01:33;;;;;;;18.38;3.13;;;;;;;15.77;54.20;94395.56;5044038;28;20037;-74
2023/10/30 09:03:59;;;;;;;9.20;3.80;;;;;;;15.88;53.85;94397.81;5045225;28;20026;-74
2023/10/30 09:06:26;;;;;;;11.00;3.60;;;;;;;15.98;53.57;94400.09;5044942;28;20029;-74
2023/10/30 09:08:52;;;;;;;15.00;3.25;;;;;;;16.07;54.65;94400.75;5045080;28;20063;-74
2023/10/30 09:11:18;;;;;;;12.43;3.35;;;;;;;16.19;54.58;94392.69;5045254;28;20040;-75
2023/10/30 09:13:44;;;;;;;10.38;3.25;;;;;;;16.34;54.49;94395.84;5045026;28;20029;-75
2023/10/30 09:16:11;;;;;;;15.38;4.13;;;;;;;16.41;54.05;94393.38;5044917;28;20056;-75
2023/10/30 09:18:37;;;;;;;14.88;3.95;;;;;;;16.52;53.43;94389.09;5044964;28;20236;-75
2023/10/30 09:21:03;;;;;;;18.70;3.45;;;;;;;16.61;53.04;94376.34;5045115;28;20071;-75
2023/10/30 09:23:28;;;;;;;12.45;4.07;;;;;;;16.70;52.73;94378.13;5044928;28;20251;-75
2023/10/30 09:25:56;;;;;;;11.90;3.85;;;;;;;16.78;52.86;94377.22;5044718;28;20029;-75
2023/10/30 09:28:22;;;;;;;8.25;4.03;;;;;;;16.89;51.80;94374.84;5045146;28;20014;-75
2023/10/30 09:30:47;;;;;;;19.70;3.97;;;;;;;16.95;51.77;94376.97;5044920;28;20247;-75
2023/10/30 09:33:12;;;;;;;16.00;4.05;;;;;;;16.87;52.05;94383.25;5044591;28;20017;-74
2023/10/30 09:35:38;;;;;;;21.73;4.47;;;;;;;16.95;52.59;94381.56;5043322;28;20048;-75
2023/10/30 09:38:05;;;;;;;10.48;3.63;;;;;;;17.01;52.17;94375.59;5044577;28;20025;-74
2023/10/30 09:40:31;;;;;;;10.07;3.75;;;;;;;17.11;52.38;94360.88;5044542;28;20017;-74
2023/10/30 09:42:56;;;;;;;12.75;3.50;;;;;;;17.27;52.23;94362.84;5044232;28;20208;-74
2023/10/30 09:45:23;;;;;;;13.60;3.92;;;;;;;17.37;51.24;94363.13;5044383;28;20017;-73
2023/10/30 09:47:56;;;;;;;11.13;3.92;;;;;;;17.47;50.54;94351.09;5044510;28;20021;-74
2023/10/30 09:50:24;;;;;;;14.43;4.72;;;;;;;17.55;49.80;94343.97;5044496;28;20085;-73
2023/10/30 09:52:54;;;;;;;12.20;2.70;;;;;;;17.63;49.54;94348.44;5044043;28;20096;-74
2023/10/30 09:55:22;;;;;;;14.60;3.65;;;;;;;17.68;49.27;94345.47;5044326;28;20033;-74
2023/10/30 09:57:49;;;;;;;14.35;3.22;;;;;;;17.65;50.47;94335.38;5044425;28;20037;-73
2023/10/30 10:00:15;;;;;;;10.80;2.88;;;;;;;17.78;50.38;94334.16;5044208;28;20040;-73
2023/10/30 10:02:41;;;;;;;14.70;4.30;;;;;;;17.83;50.81;94333.19;5044227;28;20041;-75
2023/10/30 10:05:13;;;;;;;12.07;3.05;;;;;;;17.96;49.77;94334.66;5043860;28;20013;-75
2023/10/30 10:07:39;;;;;;;7.15;2.60;;;;;;;18.08;49.48;94331.09;5044055;28;20028;-75
2023/10/30 10:10:06;;;;;;;17.92;3.95;;;;;;;18.16;49.08;94330.13;5042813;28;20029;-75
2023/10/30 10:12:38;;;;;;;11.00;2.65;;;;;;;18.17;49.09;94320.09;5044059;28;20254;-75
2023/10/30 10:15:08;;;;;;;11.55;2.55;;;;;;;18.21;49.21;94324.44;5043995;28;20032;-75
2023/10/30 10:17:44;;;;;;;10.20;2.92;;;;;;;18.30;49.41;94304.59;5043778;28;20188;-75
2023/10/30 10:20:11;;;;;;;15.57;3.38;;;;;;;18.42;49.04;94302.59;5043721;28;20045;-75
2023/10/30 10:22:37;;;;;;;13.05;3.97;;;;;;;18.51;48.36;94305.06;5043721;28;20029;-74
2023/10/30 10:25:03;;;;;;;9.35;3.35;;;;;;;18.59;48.27;94304.09;5043569;28;20048;-75
2023/10/30 10:27:28;;;;;;;9.15;2.83;;;;;;;18.58;47.90;94302.53;5043731;28;20207;-77
2023/10/30 10:29:55;;;;;;;10.35;3.10;;;;;;;18.68;47.17;94295.78;5043646;28;20077;-75
2023/10/30 10:32:28;;;;;;;9.15;3.10;;;;;;;18.81;46.15;94299.19;5043817;28;20092;-76
2023/10/30 10:35:05;;;;;;;12.95;3.08;;;;;;;18.91;45.92;94295.13;5041822;28;20037;-76
2023/10/30 10:37:31;;;;;;;9.02;2.70;;;;;;;19.01;45.72;94286.44;5042100;28;20036;-76
2023/10/30 10:39:56;;;;;;;11.30;2.85;;;;;;;19.07;45.21;94282.34;5042454;28;20029;-76
2023/10/30 10:42:27;;;;;;;8.35;2.75;;;;;;;19.11;44.83;94293.22;5042732;28;20491;-75
2023/10/30 10:44:55;;;;;;;9.02;2.28;;;;;;;19.23;43.79;94283.06;5043077;28;20018;-76
2023/10/30 10:47:22;;;;;;;10.15;2.40;;;;;;;19.37;44.22;94279.81;5043309;28;20025;-76
2023/10/30 10:49:49;;;;;;;18.23;3.00;;;;;;;19.42;44.89;94276.81;5043152;28;20037;-76
2023/10/30 10:52:16;;;;;;;5.50;2.65;;;;;;;19.52;44.12;94277.34;5042713;28;20021;-76
2023/10/30 10:54:47;;;;;;;15.02;3.22;;;;;;;19.57;43.36;94277.84;5041422;28;20029;-76
2023/10/30 10:57:18;;;;;;;5.95;2.40;;;;;;;19.61;43.69;94277.91;5041321;28;20254;-75
2023/10/30 10:59:54;;;;;;;12.27;1.88;;;;;;;19.64;41.88;94260.97;5042250;28;20032;-75
2023/10/30 11:02:28;;;;;;;7.60;1.73;;;;;;;19.72;40.34;94260.00;5043226;28;20254;-76
2023/10/30 11:04:54;;;;;;;7.20;2.30;;;;;;;19.84;42.71;94265.22;5042992;28;20311;-76
2023/10/30 11:07:45;;;;;;;8.15;2.80;;;;;;;20.00;43.33;94259.66;5043200;28;20083;-76
2023/10/30 11:10:23;;;;;;;6.05;1.98;;;;;;;20.11;42.22;94257.13;5043093;28;20096;-76
2023/10/30 11:13:10;;;;;;;7.95;2.47;;;;;;;20.33;41.59;94254.72;5043059;28;20036;-76
2023/10/30 11:15:41;;;;;;;10.25;2.38;;;;;;;20.39;41.46;94239.72;5042855;28;20029;-76
2023/10/30 11:18:33;;;;;;;7.80;2.50;;;;;;;20.55;43.24;94232.19;5043001;28;20275;-76
2023/10/30 11:21:13;;;;;;;16.85;2.75;;;;;;;20.69;40.32;94242.47;5041733;28;20055;-76
2023/10/30 11:23:44;;;;;;;6.80;2.00;;;;;;;20.80;40.66;94235.25;5042957;28;20254;-74
2023/10/30 11:26:28;;;;;;;5.73;2.43;;;;;;;20.94;40.00;94229.22;5042776;28;20029;-75
2023/10/30 11:28:53;;;;;;;9.77;2.28;;;;;;;21.08;39.88;94222.41;5042808;28;20037;-74
2023/10/30 11:31:19;;;;;;;12.10;2.30;;;;;;;21.13;38.77;94220.16;5042668;28;20079;-75